Time;durP1;ratioP1;P1;durP2;ratioP2;P2;SDS_P1;SDS_P2;PMS_P1;PMS_P2;Temp;Humidity;BMP_temperature;BMP_pressure;BME280_temperature;BME280_humidity;BME280_pressure;Samples;Min_cycle;Max_cycle;Signal;HPM_P1;HPM_P2
2022/06/02 00:00:33;;;;;;;0.60;0.60;;;18.20;99.90;;;;;;4947982;29;20051;-60
2022/06/02 00:03:25;;;;;;;0.70;0.70;;;18.20;99.90;;;;;;4932590;28;20121;-60
2022/06/02 00:06:24;;;;;;;0.50;0.50;;;18.10;99.90;;;;;;4950253;28;20575;-60
2022/06/02 00:08:58;;;;;;;1.15;0.90;;;18.10;99.90;;;;;;4963710;28;20057;-60
2022/06/02 00:11:56;;;;;;;0.95;0.77;;;18.10;99.90;;;;;;4968926;28;20481;-60
2022/06/02 00:14:31;;;;;;;0.63;0.63;;;18.10;99.90;;;;;;4970182;28;20134;-60
2022/06/02 00:17:21;;;;;;;0.50;0.50;;;18.10;99.90;;;;;;4970398;28;20082;-60
2022/06/02 00:19:50;;;;;;;0.45;0.45;;;18.10;99.90;;;;;;4968599;28;20047;-60
2022/06/02 00:22:42;;;;;;;0.77;0.75;;;18.10;99.90;;;;;;4970176;28;20047;-60
2022/06/02 00:25:12;;;;;;;0.90;0.80;;;18.10;99.90;;;;;;4968445;28;20061;-60
2022/06/02 00:28:11;;;;;;;0.70;0.70;;;18.10;99.90;;;;;;4969427;28;20102;-60
2022/06/02 00:31:02;;;;;;;0.57;0.57;;;18.10;99.90;;;;;;4955787;28;20070;-58
2022/06/02 00:33:37;;;;;;;0.80;0.70;;;18.10;99.90;;;;;;4969356;28;20043;-58
2022/06/02 00:36:28;;;;;;;1.20;0.60;;;18.10;99.90;;;;;;4950573;28;20051;-58
2022/06/02 00:38:58;;;;;;;0.77;0.75;;;18.10;99.90;;;;;;4958686;28;20922;-59
2022/06/02 00:41:49;;;;;;;1.05;0.80;;;18.10;99.90;;;;;;4966722;28;20051;-58
2022/06/02 00:44:50;;;;;;;0.75;0.70;;;18.10;99.90;;;;;;4968347;28;20089;-59
2022/06/02 00:47:31;;;;;;;0.80;0.80;;;18.10;99.90;;;;;;4944145;28;20059;-59
2022/06/02 00:50:09;;;;;;;0.57;0.57;;;18.10;99.90;;;;;;4968895;28;20051;-59
2022/06/02 00:52:54;;;;;;;0.80;0.70;;;18.10;99.90;;;;;;4969100;28;20499;-60
2022/06/02 00:58:34;;;;;;;0.95;0.77;;;18.10;99.90;;;;;;4972638;28;20093;-59
2022/06/02 01:01:14;;;;;;;0.60;0.60;;;18.10;99.90;;;;;;4953800;28;20047;-59
2022/06/02 01:03:47;;;;;;;0.65;0.65;;;18.10;99.90;;;;;;4953337;28;20130;-60
2022/06/02 01:06:19;;;;;;;0.75;0.70;;;18.00;99.90;;;;;;4953584;28;20103;-59
2022/06/02 01:09:16;;;;;;;0.88;0.68;;;18.10;99.90;;;;;;4951780;29;20511;-59
2022/06/02 01:11:57;;;;;;;0.68;0.68;;;18.10;99.90;;;;;;4952956;29;20098;-59
2022/06/02 01:14:29;;;;;;;0.50;0.50;;;18.00;99.90;;;;;;4953872;28;20066;-59
2022/06/02 01:17:24;;;;;;;0.63;0.63;;;18.00;99.90;;;;;;4953277;28;20058;-59
2022/06/02 01:20:05;;;;;;;0.68;0.65;;;18.00;99.90;;;;;;4952796;29;20050;-59
2022/06/02 01:22:42;;;;;;;0.60;0.60;;;18.00;99.90;;;;;;4962916;28;20082;-59
2022/06/02 01:25:28;;;;;;;1.65;0.57;;;18.00;99.90;;;;;;4970988;28;20131;-59
2022/06/02 01:28:23;;;;;;;2.75;0.93;;;18.00;99.90;;;;;;4971961;28;20058;-59
2022/06/02 01:31:09;;;;;;;0.50;0.50;;;18.00;99.90;;;;;;4972059;28;20050;-59
2022/06/02 01:33:41;;;;;;;0.50;0.50;;;18.00;99.90;;;;;;4972785;28;20054;-59
2022/06/02 01:36:43;;;;;;;0.57;0.57;;;18.00;99.90;;;;;;4972306;28;20058;-59
2022/06/02 01:39:37;;;;;;;0.60;0.50;;;18.00;99.90;;;;;;4985739;28;20137;-60
2022/06/02 01:42:39;;;;;;;0.63;0.63;;;18.00;99.90;;;;;;4972131;28;20053;-59
2022/06/02 01:45:16;;;;;;;0.57;0.57;;;18.00;99.90;;;;;;4952777;29;20117;-59
2022/06/02 01:47:45;;;;;;;0.45;0.40;;;18.00;99.90;;;;;;4965489;28;20543;-59
2022/06/02 01:50:29;;;;;;;0.60;0.60;;;18.00;99.90;;;;;;4971079;28;20129;-59
2022/06/02 01:53:19;;;;;;;0.80;0.60;;;18.00;99.90;;;;;;4972048;28;20058;-59
2022/06/02 01:56:06;;;;;;;0.57;0.57;;;18.00;99.90;;;;;;4970410;28;20046;-59
2022/06/02 01:58:32;;;;;;;0.55;0.50;;;18.00;99.90;;;;;;4972051;28;20047;-59
2022/06/02 02:01:18;;;;;;;;;;;18.00;99.90;;;;;;4971612;28;20063;-59
2022/06/02 02:04:09;;;;;;;0.70;0.70;;;18.00;99.90;;;;;;4945861;28;19978;-59
2022/06/02 02:06:58;;;;;;;0.65;0.52;;;17.90;99.90;;;;;;4971986;28;20101;-59
2022/06/02 02:09:39;;;;;;;0.50;0.50;;;17.90;99.90;;;;;;4970004;28;20105;-59
2022/06/02 02:12:13;;;;;;;0.65;0.65;;;18.00;99.90;;;;;;4971757;28;20125;-59
2022/06/02 02:15:03;;;;;;;0.55;0.55;;;17.90;99.90;;;;;;4971953;28;20046;-59
2022/06/02 02:17:38;;;;;;;0.57;0.57;;;17.90;99.90;;;;;;4971958;28;20047;-59
2022/06/02 02:20:21;;;;;;;0.63;0.63;;;17.90;99.90;;;;;;4970978;28;20055;-59
2022/06/02 02:23:05;;;;;;;0.63;0.63;;;17.90;99.90;;;;;;4971520;28;20377;-59
2022/06/02 02:25:51;;;;;;;1.10;0.50;;;17.90;99.90;;;;;;4970210;28;20054;-59
2022/06/02 02:28:30;;;;;;;0.55;0.52;;;17.90;99.90;;;;;;4971132;28;20053;-59
2022/06/02 02:31:15;;;;;;;0.50;0.50;;;17.90;99.90;;;;;;4970964;28;20046;-59
2022/06/02 02:33:45;;;;;;;0.65;0.65;;;17.90;99.90;;;;;;4970240;28;20050;-60
2022/06/02 02:36:32;;;;;;;0.70;0.70;;;17.90;99.90;;;;;;4970805;28;20076;-59
2022/06/02 02:39:16;;;;;;;0.68;0.68;;;17.90;99.90;;;;;;4969690;28;20054;-59
2022/06/02 02:42:05;;;;;;;0.50;0.50;;;17.90;99.90;;;;;;4969596;28;20046;-61
2022/06/02 02:44:47;;;;;;;0.73;0.73;;;17.90;99.90;;;;;;4971069;28;20046;-59
2022/06/02 02:47:22;;;;;;;0.60;0.60;;;17.90;99.90;;;;;;4986359;28;20140;-59
2022/06/02 02:49:54;;;;;;;0.68;0.68;;;17.90;99.90;;;;;;4970361;28;20046;-59
2022/06/02 02:52:26;;;;;;;0.55;0.55;;;17.90;99.90;;;;;;4971411;28;20523;-59
2022/06/02 02:55:06;;;;;;;0.93;0.50;;;17.90;99.90;;;;;;4968837;28;20120;-59
2022/06/02 02:57:56;;;;;;;0.65;0.65;;;17.90;99.90;;;;;;4970123;28;20117;-59
2022/06/02 03:00:59;;;;;;;1.13;1.00;;;17.90;99.90;;;;;;4970959;28;20065;-59
2022/06/02 03:03:29;;;;;;;0.70;0.70;;;17.90;99.90;;;;;;4959741;28;20101;-60
2022/06/02 03:06:20;;;;;;;0.60;0.60;;;17.90;99.90;;;;;;4970239;28;20460;-59
2022/06/02 03:09:02;;;;;;;0.50;0.50;;;17.90;99.90;;;;;;4970336;28;20094;-60
2022/06/02 03:11:33;;;;;;;0.55;0.55;;;17.90;99.90;;;;;;4970501;28;20098;-58
2022/06/02 03:14:09;;;;;;;0.68;0.60;;;17.90;99.90;;;;;;4970244;28;20058;-59
2022/06/02 03:16:38;;;;;;;0.50;0.50;;;17.90;99.90;;;;;;4969217;28;20054;-60
2022/06/02 03:19:32;;;;;;;0.70;0.68;;;17.90;99.90;;;;;;4969529;28;20065;-59
2022/06/02 03:22:13;;;;;;;0.60;0.60;;;17.90;99.90;;;;;;4950016;29;20588;-59
2022/06/02 03:24:57;;;;;;;0.68;0.68;;;17.90;99.90;;;;;;4949879;28;20501;-59
2022/06/02 03:28:17;;;;;;;0.95;0.85;;;17.90;99.90;;;;;;4970739;28;20073;-59
2022/06/02 03:30:53;;;;;;;0.90;0.80;;;17.90;99.90;;;;;;4929256;29;20054;-59
2022/06/02 03:33:51;;;;;;;0.90;0.90;;;17.90;99.90;;;;;;4968753;28;20063;-59
2022/06/02 03:36:29;;;;;;;0.73;0.70;;;17.90;99.90;;;;;;4970587;28;20062;-59
2022/06/02 03:39:00;;;;;;;0.70;0.70;;;17.80;99.90;;;;;;4969114;28;20058;-60
2022/06/02 03:41:56;;;;;;;0.68;0.68;;;17.80;99.90;;;;;;4969660;28;20066;-59
2022/06/02 03:44:43;;;;;;;0.60;0.60;;;17.80;99.90;;;;;;4970028;28;20120;-59
2022/06/02 03:47:09;;;;;;;0.65;0.65;;;17.80;99.90;;;;;;4970284;28;20054;-59
2022/06/02 03:49:37;;;;;;;;;;;17.80;99.90;;;;;;4970284;28;20112;-59
2022/06/02 03:52:35;;;;;;;1.17;0.80;;;17.80;99.90;;;;;;4969890;28;19933;-59
2022/06/02 03:55:40;;;;;;;0.60;0.60;;;17.80;99.90;;;;;;4968137;28;20047;-60
2022/06/02 03:58:38;;;;;;;0.50;0.50;;;17.80;99.90;;;;;;4967301;28;20084;-59
2022/06/02 04:01:06;;;;;;;0.55;0.55;;;17.80;99.90;;;;;;4969789;28;20078;-59
2022/06/02 04:04:11;;;;;;;0.60;0.60;;;17.80;99.90;;;;;;4969946;28;20302;-60
2022/06/02 04:06:48;;;;;;;0.60;0.60;;;17.80;99.90;;;;;;4970373;28;20053;-59
2022/06/02 04:09:33;;;;;;;0.65;0.60;;;17.80;99.90;;;;;;4968452;28;20209;-59
2022/06/02 04:15:39;;;;;;;0.47;0.47;;;17.80;99.90;;;;;;4970206;28;20098;-59
2022/06/02 04:18:17;;;;;;;0.47;0.47;;;17.80;99.90;;;;;;4969936;28;20093;-59
2022/06/02 04:20:57;;;;;;;0.60;0.60;;;17.80;99.90;;;;;;4969716;28;20054;-59
2022/06/02 04:23:42;;;;;;;0.52;0.52;;;17.80;99.90;;;;;;4970145;28;20167;-60
2022/06/02 04:26:39;;;;;;;0.50;0.50;;;17.80;99.90;;;;;;4967661;28;20050;-59
2022/06/02 04:29:55;;;;;;;0.83;0.70;;;17.90;99.90;;;;;;4969090;28;20054;-59
2022/06/02 04:32:45;;;;;;;0.68;0.57;;;17.80;99.90;;;;;;4964797;28;20055;-60
2022/06/02 04:35:31;;;;;;;0.50;0.50;;;17.80;99.90;;;;;;4971392;28;20093;-59
2022/06/02 04:38:35;;;;;;;0.73;0.65;;;17.80;99.90;;;;;;4973263;28;20046;-60
2022/06/02 04:41:15;;;;;;;0.43;0.43;;;17.80;99.90;;;;;;4971368;28;20050;-61
2022/06/02 04:44:00;;;;;;;0.70;0.70;;;17.80;99.90;;;;;;4973395;28;20414;-60
2022/06/02 04:46:54;;;;;;;0.55;0.50;;;17.80;99.90;;;;;;4973460;28;20500;-60
2022/06/02 04:49:36;;;;;;;0.60;0.57;;;17.80;99.90;;;;;;4972965;28;20121;-60
2022/06/02 04:52:11;;;;;;;0.50;0.50;;;17.80;99.90;;;;;;4972846;28;20045;-60
2022/06/02 04:54:57;;;;;;;0.50;0.50;;;17.80;99.90;;;;;;4967338;28;20098;-61
2022/06/02 04:57:54;;;;;;;1.05;0.70;;;17.80;99.90;;;;;;4972236;28;20101;-60
2022/06/02 05:00:38;;;;;;;0.60;0.60;;;17.80;99.90;;;;;;4972613;28;20039;-60
2022/06/02 05:03:28;;;;;;;1.23;0.60;;;17.90;99.90;;;;;;4971813;28;20059;-60
2022/06/02 05:06:07;;;;;;;0.95;0.68;;;17.90;99.90;;;;;;4960698;28;20495;-62
2022/06/02 05:08:56;;;;;;;0.70;0.70;;;17.90;99.90;;;;;;4972895;28;20082;-61
2022/06/02 05:11:52;;;;;;;0.52;0.52;;;17.90;99.90;;;;;;4972221;28;20133;-60
2022/06/02 05:14:28;;;;;;;0.57;0.55;;;17.90;99.90;;;;;;4972255;28;20905;-60
2022/06/02 05:17:13;;;;;;;1.00;0.82;;;17.90;99.90;;;;;;4972498;28;20062;-62
2022/06/02 05:20:06;;;;;;;0.50;0.50;;;17.90;99.90;;;;;;4952152;29;20058;-61
2022/06/02 05:23:00;;;;;;;0.65;0.65;;;17.90;99.90;;;;;;4953710;28;20058;-60
2022/06/02 05:25:49;;;;;;;0.50;0.50;;;17.90;99.90;;;;;;4951809;28;20059;-61
2022/06/02 05:28:52;;;;;;;0.85;0.70;;;18.00;99.90;;;;;;4967456;28;20149;-61
2022/06/02 05:31:33;;;;;;;0.60;0.60;;;17.90;99.90;;;;;;4972238;28;20047;-61
2022/06/02 05:34:17;;;;;;;0.77;0.77;;;18.00;99.90;;;;;;4972064;28;20050;-61
2022/06/02 05:37:07;;;;;;;0.70;0.70;;;18.00;99.90;;;;;;4972232;28;20055;-60
2022/06/02 05:39:54;;;;;;;0.77;0.77;;;18.00;99.90;;;;;;4951420;29;20103;-60
2022/06/02 05:42:49;;;;;;;0.68;0.68;;;18.00;99.90;;;;;;4970574;28;20058;-61
2022/06/02 05:45:39;;;;;;;0.90;0.80;;;18.00;99.90;;;;;;4971769;28;20547;-60
2022/06/02 05:48:21;;;;;;;0.85;0.80;;;18.00;99.90;;;;;;4971941;28;20055;-61
2022/06/02 05:51:08;;;;;;;0.82;0.70;;;18.00;99.90;;;;;;4952691;28;20073;-61
2022/06/02 05:53:37;;;;;;;;;;;18.00;99.90;;;;;;4953399;28;20051;-61
2022/06/02 05:56:14;;;;;;;0.70;0.60;;;18.00;99.90;;;;;;4950950;29;19937;-60
2022/06/02 05:58:40;;;;;;;0.60;0.60;;;18.00;99.90;;;;;;4974378;28;20126;-61
2022/06/02 06:01:11;;;;;;;;;;;18.00;99.90;;;;;;4952631;28;20134;-60
2022/06/02 06:03:54;;;;;;;0.70;0.70;;;18.00;99.90;;;;;;4959025;28;19925;-61
2022/06/02 06:06:31;;;;;;;0.63;0.63;;;18.00;99.90;;;;;;4971539;28;20046;-60
2022/06/02 06:09:16;;;;;;;0.65;0.65;;;18.00;99.90;;;;;;4970923;28;20062;-62
2022/06/02 06:12:20;;;;;;;0.82;0.70;;;18.10;99.90;;;;;;4969984;28;20089;-60
2022/06/02 06:15:01;;;;;;;0.80;0.80;;;18.10;99.90;;;;;;4971690;28;20054;-61
2022/06/02 06:18:00;;;;;;;0.85;0.60;;;18.10;99.90;;;;;;4972036;28;20054;-61
2022/06/02 06:20:46;;;;;;;1.30;0.90;;;18.10;99.90;;;;;;4971445;28;20047;-60
2022/06/02 06:23:29;;;;;;;1.05;0.95;;;18.10;99.90;;;;;;4970855;28;20507;-60
2022/06/02 06:26:06;;;;;;;0.95;0.80;;;18.10;99.90;;;;;;4969088;28;20113;-61
2022/06/02 06:28:36;;;;;;;0.93;0.88;;;18.10;99.90;;;;;;4971626;28;20102;-60
2022/06/02 06:31:15;;;;;;;0.50;0.50;;;18.10;99.90;;;;;;4970180;28;20051;-61
2022/06/02 06:34:16;;;;;;;0.50;0.50;;;18.10;99.90;;;;;;4971251;28;20586;-60
2022/06/02 06:37:09;;;;;;;0.75;0.70;;;18.10;99.90;;;;;;4971339;28;20408;-60
2022/06/02 06:39:48;;;;;;;0.70;0.70;;;18.10;99.90;;;;;;4969254;28;20042;-60
2022/06/02 06:42:45;;;;;;;0.80;0.80;;;18.10;99.90;;;;;;4970655;28;20496;-61
2022/06/02 06:45:26;;;;;;;0.55;0.55;;;18.10;99.90;;;;;;4970459;28;20066;-61
2022/06/02 06:47:58;;;;;;;0.77;0.77;;;18.10;99.90;;;;;;4970935;28;20078;-60
2022/06/02 06:50:36;;;;;;;0.70;0.70;;;18.10;99.90;;;;;;4971216;28;20050;-60
2022/06/02 06:53:18;;;;;;;0.70;0.70;;;18.10;99.90;;;;;;4971370;28;20444;-62
2022/06/02 06:56:13;;;;;;;0.63;0.63;;;18.10;99.90;;;;;;4969979;28;20070;-60
2022/06/02 06:58:56;;;;;;;0.77;0.70;;;18.10;99.90;;;;;;4969925;28;20082;-61
2022/06/02 07:01:41;;;;;;;2.03;0.80;;;18.10;99.90;;;;;;4971341;28;20101;-60
2022/06/02 07:04:28;;;;;;;0.80;0.80;;;18.10;99.90;;;;;;4971313;28;20404;-60
2022/06/02 07:07:37;;;;;;;0.80;0.80;;;18.10;99.90;;;;;;4972513;28;20047;-60
2022/06/02 07:10:21;;;;;;;0.70;0.70;;;18.10;99.90;;;;;;4949891;29;20065;-61
2022/06/02 07:13:01;;;;;;;0.70;0.70;;;18.20;99.90;;;;;;4961227;28;20082;-60
2022/06/02 07:15:45;;;;;;;0.80;0.80;;;18.20;99.90;;;;;;4971365;28;20039;-60
2022/06/02 07:18:21;;;;;;;3.13;0.80;;;18.20;99.90;;;;;;4971460;28;20477;-60
2022/06/02 07:21:01;;;;;;;0.60;0.60;;;18.20;99.90;;;;;;4970571;28;20392;-60
2022/06/02 07:23:39;;;;;;;0.95;0.80;;;18.20;99.90;;;;;;4971623;28;20141;-60
2022/06/02 07:26:31;;;;;;;0.80;0.80;;;18.20;99.90;;;;;;4969410;28;20555;-62
2022/06/02 07:29:18;;;;;;;0.70;0.70;;;18.20;99.90;;;;;;4965272;28;20097;-60
2022/06/02 07:32:08;;;;;;;0.73;0.73;;;18.20;99.90;;;;;;4971696;28;20074;-60
2022/06/02 07:34:42;;;;;;;0.52;0.52;;;18.20;99.90;;;;;;4971023;28;20086;-59
2022/06/02 07:37:31;;;;;;;1.67;0.60;;;18.20;99.90;;;;;;4971434;28;20098;-60
2022/06/02 07:40:38;;;;;;;0.70;0.65;;;18.20;99.90;;;;;;4969566;28;20435;-61
2022/06/02 07:43:21;;;;;;;3.38;0.63;;;18.20;99.90;;;;;;4971842;28;20062;-61
2022/06/02 07:46:16;;;;;;;0.45;0.45;;;18.20;99.90;;;;;;4971308;28;20055;-60
2022/06/02 07:49:00;;;;;;;0.88;0.70;;;18.20;99.90;;;;;;4971986;28;20062;-60
2022/06/02 07:51:38;;;;;;;0.70;0.60;;;18.20;99.90;;;;;;4969971;28;20058;-60
2022/06/02 07:54:16;;;;;;;1.58;0.90;;;18.20;99.90;;;;;;4956570;28;20510;-60
2022/06/02 07:56:56;;;;;;;1.23;1.08;;;18.20;99.90;;;;;;4970869;28;20066;-60
2022/06/02 07:59:46;;;;;;;1.63;0.88;;;18.20;99.90;;;;;;4970022;28;20047;-60
2022/06/02 08:02:48;;;;;;;3.33;1.13;;;18.20;99.90;;;;;;4971379;28;20046;-61
2022/06/02 08:05:22;;;;;;;1.40;0.88;;;18.30;99.90;;;;;;4955472;29;20043;-61
2022/06/02 08:08:03;;;;;;;0.65;0.60;;;18.30;99.90;;;;;;4970501;28;20090;-60
2022/06/02 08:10:40;;;;;;;0.70;0.60;;;18.30;99.90;;;;;;4971030;28;20348;-59
2022/06/02 08:13:22;;;;;;;2.33;1.10;;;18.20;99.90;;;;;;4974186;28;20042;-60
2022/06/02 08:15:58;;;;;;;1.65;1.00;;;18.20;99.90;;;;;;4973678;28;20047;-59
2022/06/02 08:18:41;;;;;;;0.98;0.85;;;18.20;99.90;;;;;;4971151;28;20114;-60
2022/06/02 08:21:16;;;;;;;3.08;1.05;;;18.20;99.90;;;;;;4973720;28;20045;-59
2022/06/02 08:23:54;;;;;;;1.52;0.90;;;18.20;99.90;;;;;;4974017;28;20047;-59
2022/06/02 08:26:43;;;;;;;1.73;1.08;;;18.20;99.90;;;;;;4972753;28;20047;-60
2022/06/02 08:29:17;;;;;;;1.27;1.10;;;18.20;99.90;;;;;;4968754;28;20059;-59
2022/06/02 08:31:43;;;;;;;1.55;1.00;;;18.20;99.90;;;;;;4972589;28;20177;-59
2022/06/02 08:34:13;;;;;;;;;;;18.20;99.90;;;;;;4972783;28;20121;-59
2022/06/02 08:37:10;;;;;;;1.65;1.00;;;18.20;99.90;;;;;;4972992;28;19922;-59
2022/06/02 08:40:03;;;;;;;3.30;0.82;;;18.20;99.90;;;;;;4970817;28;20042;-59
2022/06/02 08:43:19;;;;;;;0.82;0.82;;;18.20;99.90;;;;;;4972492;28;20053;-60
2022/06/02 08:46:09;;;;;;;4.70;1.10;;;18.20;99.90;;;;;;4963401;28;20055;-59
2022/06/02 08:48:38;;;;;;;2.30;0.80;;;18.20;99.90;;;;;;4973243;28;20500;-60
2022/06/02 08:51:27;;;;;;;1.15;0.82;;;18.20;99.90;;;;;;4972348;28;20046;-60
2022/06/02 08:54:30;;;;;;;3.35;0.95;;;18.20;99.90;;;;;;4972394;28;20100;-60
2022/06/02 08:57:15;;;;;;;2.65;1.67;;;18.20;99.90;;;;;;4971662;28;20492;-58
2022/06/02 08:59:55;;;;;;;5.30;1.50;;;18.20;99.90;;;;;;4972900;28;20043;-58
2022/06/02 09:02:50;;;;;;;1.85;1.48;;;18.20;99.90;;;;;;4972849;28;20097;-58
2022/06/02 09:05:37;;;;;;;2.10;1.35;;;18.20;99.90;;;;;;4944322;28;20058;-58
2022/06/02 09:08:11;;;;;;;2.30;1.40;;;18.20;99.90;;;;;;4969409;28;20097;-58
2022/06/02 09:11:11;;;;;;;2.80;1.40;;;18.20;99.90;;;;;;4971850;28;20125;-58
2022/06/02 09:13:54;;;;;;;3.67;1.60;;;18.20;99.90;;;;;;4973181;28;20295;-58
2022/06/02 09:16:21;;;;;;;2.47;1.50;;;18.20;99.90;;;;;;4972958;28;20051;-58
2022/06/02 09:19:28;;;;;;;6.07;1.40;;;18.20;99.90;;;;;;4960871;28;20113;-58
2022/06/02 09:21:56;;;;;;;2.58;1.38;;;18.30;99.90;;;;;;4971450;28;20055;-58
2022/06/02 09:24:45;;;;;;;2.15;1.38;;;18.30;99.90;;;;;;4972075;28;20495;-58
2022/06/02 09:28:00;;;;;;;4.15;1.55;;;18.30;99.90;;;;;;4973946;28;20059;-58
2022/06/02 09:30:39;;;;;;;2.97;1.10;;;18.30;99.80;;;;;;4942769;28;20059;-58
2022/06/02 09:33:43;;;;;;;2.70;1.20;;;18.20;99.90;;;;;;4972993;28;20041;-58
2022/06/02 09:36:46;;;;;;;2.22;1.25;;;18.30;99.90;;;;;;4973225;28;20113;-59
2022/06/02 09:39:24;;;;;;;2.65;1.60;;;18.30;99.30;;;;;;4972320;28;20247;-59
2022/06/02 09:42:02;;;;;;;2.40;1.27;;;18.30;99.10;;;;;;4973850;28;20121;-58
2022/06/02 09:44:31;;;;;;;2.15;1.33;;;;;;;;;;4970295;28;20093;-54
2022/06/02 09:47:21;;;;;;;3.63;1.33;;;18.40;97.70;;;;;;4973833;28;20523;-57
2022/06/02 09:50:10;;;;;;;1.80;1.17;;;18.50;97.50;;;;;;4972277;28;20493;-56
2022/06/02 09:53:08;;;;;;;3.90;1.52;;;18.50;97.50;;;;;;4970867;28;20122;-56
2022/06/02 09:55:40;;;;;;;1.67;1.00;;;18.50;97.30;;;;;;4971368;28;20057;-56
2022/06/02 09:58:09;;;;;;;1.08;1.00;;;18.50;97.20;;;;;;4973418;28;20117;-57
2022/06/02 10:01:05;;;;;;;2.42;1.08;;;18.50;97.00;;;;;;4972905;28;20419;-57
2022/06/02 10:03:42;;;;;;;2.72;1.20;;;18.60;96.80;;;;;;4971776;28;20077;-56
2022/06/02 10:06:16;;;;;;;17.13;2.00;;;18.60;96.70;;;;;;4971984;28;20411;-56
2022/06/02 10:08:53;;;;;;;2.80;1.35;;;18.60;96.60;;;;;;4973106;28;20160;-56
2022/06/02 10:11:46;;;;;;;1.05;0.95;;;18.70;96.50;;;;;;4972374;28;20057;-56
2022/06/02 10:14:33;;;;;;;2.20;0.98;;;18.70;96.50;;;;;;4972948;28;20079;-57
2022/06/02 10:17:10;;;;;;;1.63;0.88;;;18.70;96.40;;;;;;4954073;29;20052;-57
2022/06/02 10:20:06;;;;;;;1.27;1.17;;;18.70;96.30;;;;;;4963249;28;20407;-57
2022/06/02 10:22:56;;;;;;;1.83;1.10;;;18.80;96.30;;;;;;4970491;28;20046;-56
2022/06/02 10:25:40;;;;;;;1.30;1.05;;;18.80;96.20;;;;;;4970301;28;20527;-56
2022/06/02 10:28:30;;;;;;;0.90;0.90;;;18.80;96.20;;;;;;4971088;28;20053;-56
2022/06/02 10:31:22;;;;;;;2.13;0.88;;;18.80;96.20;;;;;;4971012;28;20050;-56
2022/06/02 10:34:09;;;;;;;1.33;1.00;;;18.80;96.10;;;;;;4969487;28;20377;-57
2022/06/02 10:36:43;;;;;;;;;;;18.80;96.10;;;;;;4970927;28;20038;-55
2022/06/02 10:39:46;;;;;;;1.98;1.00;;;18.80;96.10;;;;;;4968398;28;19925;-56
2022/06/02 10:42:39;;;;;;;1.02;0.88;;;18.80;96.00;;;;;;4969655;28;20046;-57
2022/06/02 10:45:23;;;;;;;1.67;1.02;;;18.90;96.10;;;;;;4971110;28;20046;-56
2022/06/02 10:48:24;;;;;;;1.35;1.15;;;18.90;96.00;;;;;;4971093;28;20061;-56
2022/06/02 10:51:17;;;;;;;1.10;0.90;;;18.80;96.00;;;;;;4968230;28;20081;-57
2022/06/02 10:53:54;;;;;;;1.52;0.80;;;18.90;96.00;;;;;;4970173;28;20138;-56
2022/06/02 10:56:45;;;;;;;0.73;0.73;;;18.90;96.10;;;;;;4966976;28;20455;-57
2022/06/02 10:59:43;;;;;;;2.45;0.82;;;18.90;96.00;;;;;;4981642;28;20062;-57
2022/06/02 11:02:36;;;;;;;2.47;0.95;;;18.90;96.00;;;;;;4969072;28;20049;-57
2022/06/02 11:05:21;;;;;;;1.40;0.90;;;18.90;96.00;;;;;;4969466;28;20574;-56
2022/06/02 11:08:14;;;;;;;4.55;1.20;;;18.90;96.00;;;;;;4967883;28;20126;-56
2022/06/02 11:10:43;;;;;;;0.90;0.88;;;18.90;96.10;;;;;;4965675;28;20043;-56
2022/06/02 11:13:30;;;;;;;0.95;0.70;;;18.90;96.10;;;;;;4968557;28;20051;-57
2022/06/02 11:16:22;;;;;;;1.10;1.00;;;18.90;96.00;;;;;;4967621;28;20050;-57
2022/06/02 11:18:59;;;;;;;0.77;0.77;;;18.90;96.00;;;;;;4969209;28;20120;-57
2022/06/02 11:22:23;;;;;;;6.25;1.35;;;18.90;96.00;;;;;;4968267;28;20047;-56
2022/06/02 11:25:06;;;;;;;2.33;0.93;;;18.90;96.00;;;;;;4953605;28;20055;-57
2022/06/02 11:27:58;;;;;;;0.82;0.80;;;18.90;96.10;;;;;;4969019;28;20398;-56
2022/06/02 11:31:01;;;;;;;1.23;0.70;;;18.90;96.10;;;;;;4969015;28;20558;-57
2022/06/02 11:34:08;;;;;;;0.80;0.70;;;18.90;96.10;;;;;;4971579;28;20046;-53
2022/06/02 11:36:55;;;;;;;0.80;0.80;;;18.90;96.10;;;;;;4971117;28;20133;-56
2022/06/02 11:39:42;;;;;;;3.83;0.93;;;18.90;96.10;;;;;;4969935;28;20050;-56
2022/06/02 11:42:20;;;;;;;2.25;1.00;;;18.90;96.20;;;;;;4975350;28;20043;-55
2022/06/02 11:45:23;;;;;;;0.80;0.80;;;18.90;96.20;;;;;;4970986;28;20053;-57
2022/06/02 11:48:17;;;;;;;2.97;0.80;;;18.90;96.20;;;;;;4970666;28;20065;-57
2022/06/02 11:51:01;;;;;;;0.95;0.90;;;18.90;96.20;;;;;;4969312;28;20078;-57
2022/06/02 11:53:53;;;;;;;1.67;1.05;;;18.90;96.20;;;;;;4971184;28;20054;-51
2022/06/02 11:56:37;;;;;;;1.10;1.00;;;18.90;95.80;;;;;;4959604;28;20057;-57
2022/06/02 11:59:38;;;;;;;1.67;1.15;;;18.90;95.90;;;;;;4970919;28;20484;-57
2022/06/02 12:02:32;;;;;;;0.90;0.90;;;18.90;95.80;;;;;;4954960;28;20051;-56
2022/06/02 12:05:18;;;;;;;1.92;1.17;;;18.90;95.90;;;;;;4970843;28;20046;-56
2022/06/02 12:08:14;;;;;;;1.88;0.80;;;18.90;95.90;;;;;;4970093;28;20065;-56
2022/06/02 12:10:58;;;;;;;1.05;0.95;;;18.90;95.90;;;;;;4969027;28;20121;-56
2022/06/02 12:13:44;;;;;;;0.90;0.90;;;18.80;95.90;;;;;;4970491;28;20049;-56
2022/06/02 12:16:27;;;;;;;0.88;0.82;;;18.90;95.90;;;;;;4968332;28;20058;-56
2022/06/02 12:18:53;;;;;;;1.25;0.95;;;18.90;95.90;;;;;;4957731;28;20121;-55
2022/06/02 12:21:31;;;;;;;;;;;18.80;95.90;;;;;;4971656;28;20117;-56
2022/06/02 12:24:14;;;;;;;0.90;0.90;;;18.90;95.90;;;;;;4956029;28;20370;-56
2022/06/02 12:27:06;;;;;;;1.25;0.80;;;18.90;96.00;;;;;;4970285;28;20122;-56
2022/06/02 12:29:56;;;;;;;1.25;0.85;;;18.90;95.90;;;;;;4955373;28;20094;-56
2022/06/02 12:33:00;;;;;;;1.33;0.95;;;18.90;96.00;;;;;;4971310;28;20138;-56
2022/06/02 12:36:00;;;;;;;2.05;0.90;;;18.90;96.00;;;;;;4970852;28;20054;-56
2022/06/02 12:38:47;;;;;;;3.65;1.13;;;18.90;96.00;;;;;;4965696;28;20062;-57
2022/06/02 12:41:44;;;;;;;8.18;1.77;;;18.90;95.60;;;;;;4950549;28;20582;-56
2022/06/02 12:44:34;;;;;;;98.47;9.90;;;18.80;95.30;;;;;;4968386;28;20792;-56
2022/06/02 12:47:32;;;;;;;35.67;4.50;;;18.80;94.70;;;;;;4969383;28;20141;-56
2022/06/02 12:50:27;;;;;;;18.33;3.17;;;18.80;94.20;;;;;;4967402;28;20102;-54
2022/06/02 12:53:28;;;;;;;20.10;3.38;;;18.80;94.30;;;;;;4972969;28;20496;-53
2022/06/02 12:56:21;;;;;;;26.48;3.20;;;18.80;94.50;;;;;;4972361;28;20055;-55
2022/06/02 12:58:59;;;;;;;29.92;3.40;;;18.80;94.40;;;;;;4973437;28;20055;-55
2022/06/02 13:01:55;;;;;;;34.15;4.25;;;18.80;94.50;;;;;;4972332;28;20381;-55
2022/06/02 13:05:05;;;;;;;22.87;2.97;;;18.80;94.70;;;;;;4974408;28;20061;-54
2022/06/02 13:08:02;;;;;;;18.35;3.17;;;18.80;94.40;;;;;;4974731;28;20826;-56
2022/06/02 13:10:38;;;;;;;23.83;2.20;;;18.80;94.50;;;;;;4972482;28;20043;-57
2022/06/02 13:13:31;;;;;;;13.43;3.17;;;18.80;94.50;;;;;;4974081;28;20046;-53
2022/06/02 13:16:21;;;;;;;15.43;2.47;;;18.80;94.50;;;;;;4973916;28;20476;-56
2022/06/02 13:19:29;;;;;;;16.02;2.83;;;18.80;94.50;;;;;;4973804;28;20469;-55
2022/06/02 13:22:13;;;;;;;20.23;3.33;;;18.90;94.50;;;;;;4972963;28;20102;-56
2022/06/02 13:25:03;;;;;;;14.57;2.55;;;18.80;94.50;;;;;;4972550;28;20059;-55
2022/06/02 13:28:06;;;;;;;15.13;2.20;;;18.80;94.50;;;;;;4974234;28;20496;-53
2022/06/02 13:31:00;;;;;;;16.35;2.65;;;18.80;94.50;;;;;;4973913;28;20051;-55
2022/06/02 13:33:41;;;;;;;13.65;2.10;;;18.90;94.60;;;;;;4973699;28;20058;-55
2022/06/02 13:36:35;;;;;;;14.02;3.90;;;18.80;94.60;;;;;;4973342;28;20174;-56
2022/06/02 13:39:18;;;;;;;13.45;2.65;;;18.80;94.60;;;;;;4972533;28;20189;-54
2022/06/02 13:41:51;;;;;;;16.50;2.35;;;18.80;94.60;;;;;;4973017;28;20467;-57
2022/06/02 13:44:43;;;;;;;13.00;2.60;;;18.90;94.60;;;;;;4973948;28;20182;-55
2022/06/02 13:47:36;;;;;;;10.27;2.15;;;18.90;94.60;;;;;;4972603;28;20058;-56
2022/06/02 13:50:31;;;;;;;13.98;2.00;;;18.90;94.60;;;;;;4973071;28;20055;-57
2022/06/02 13:53:15;;;;;;;6.07;1.83;;;18.90;94.70;;;;;;4968399;28;20066;-56
2022/06/02 13:59:25;;;;;;;7.18;2.35;;;18.90;94.70;;;;;;4972861;28;20929;-57
2022/06/02 14:02:22;;;;;;;6.22;1.83;;;18.90;94.70;;;;;;4972713;28;20058;-57
2022/06/02 14:05:10;;;;;;;9.05;2.13;;;18.90;94.70;;;;;;4972899;28;20054;-57
2022/06/02 14:08:15;;;;;;;8.52;1.58;;;18.90;94.80;;;;;;4973564;28;20042;-56
2022/06/02 14:10:59;;;;;;;6.15;1.90;;;18.90;94.80;;;;;;4970292;28;20051;-56
2022/06/02 14:13:35;;;;;;;10.82;1.75;;;18.90;94.80;;;;;;4972170;28;20121;-57
2022/06/02 14:16:34;;;;;;;7.35;1.85;;;18.90;94.80;;;;;;4971018;28;20043;-56
2022/06/02 14:19:50;;;;;;;5.15;1.63;;;18.90;94.80;;;;;;4970653;28;20039;-56
2022/06/02 14:22:37;;;;;;;5.80;1.85;;;18.90;94.80;;;;;;4946070;28;20475;-56
2022/06/02 14:25:28;;;;;;;9.55;1.75;;;18.90;94.90;;;;;;4971147;28;20054;-57
2022/06/02 14:28:08;;;;;;;6.20;1.80;;;18.90;94.90;;;;;;4971771;28;20059;-56
2022/06/02 14:31:07;;;;;;;10.18;2.28;;;18.90;94.90;;;;;;4972186;28;20050;-57
2022/06/02 14:33:40;;;;;;;7.13;1.70;;;18.90;94.90;;;;;;4972425;28;20142;-56
2022/06/02 14:36:21;;;;;;;8.68;1.50;;;18.90;95.00;;;;;;4971080;28;20060;-56